sensor_id;sensor_type;location;lat;lon;timestamp;noise_LAeq;noise_LA_min;noise_LA_max;noise_LA01;noise_LA95
72276;Laerm;61204;49.980;8.358;2023-06-19T00:01:31;41.22;35.18;47.48;;
72276;Laerm;61204;49.980;8.358;2023-06-19T00:03:57;40.38;36.69;45.63;;
72276;Laerm;61204;49.980;8.358;2023-06-19T00:06:22;43.73;36.94;55.27;;
72276;Laerm;61204;49.980;8.358;2023-06-19T00:08:47;38.54;33.33;45.59;;
72276;Laerm;61204;49.980;8.358;2023-06-19T00:11:13;42.09;38.15;47.82;;
72276;Laerm;61204;49.980;8.358;2023-06-19T00:13:38;39.10;33.94;47.19;;
72276;Laerm;61204;49.980;8.358;2023-06-19T00:16:04;41.64;36.69;53.86;;
72276;Laerm;61204;49.980;8.358;2023-06-19T00:18:30;41.07;35.80;50.11;;
72276;Laerm;61204;49.980;8.358;2023-06-19T00:20:56;40.78;35.26;48.32;;
72276;Laerm;61204;49.980;8.358;2023-06-19T00:23:23;42.43;37.03;51.11;;
72276;Laerm;61204;49.980;8.358;2023-06-19T00:25:48;39.76;34.03;52.64;;
72276;Laerm;61204;49.980;8.358;2023-06-19T00:28:14;41.43;35.45;68.04;;
72276;Laerm;61204;49.980;8.358;2023-06-19T00:30:45;42.69;36.76;59.93;;
72276;Laerm;61204;49.980;8.358;2023-06-19T00:33:10;42.61;37.20;57.16;;
72276;Laerm;61204;49.980;8.358;2023-06-19T00:35:35;42.18;35.57;50.03;;
72276;Laerm;61204;49.980;8.358;2023-06-19T00:38:01;43.62;37.09;53.16;;
72276;Laerm;61204;49.980;8.358;2023-06-19T00:40:32;45.79;39.17;52.37;;
72276;Laerm;61204;49.980;8.358;2023-06-19T00:42:59;43.53;35.62;54.51;;
72276;Laerm;61204;49.980;8.358;2023-06-19T00:45:25;38.75;34.78;45.51;;
72276;Laerm;61204;49.980;8.358;2023-06-19T00:47:55;41.38;35.69;49.51;;
72276;Laerm;61204;49.980;8.358;2023-06-19T00:50:25;44.10;38.80;50.55;;
72276;Laerm;61204;49.980;8.358;2023-06-19T00:52:53;40.49;35.16;50.27;;
72276;Laerm;61204;49.980;8.358;2023-06-19T00:55:19;40.17;32.35;53.58;;
72276;Laerm;61204;49.980;8.358;2023-06-19T00:57:46;42.08;35.63;48.05;;
72276;Laerm;61204;49.980;8.358;2023-06-19T01:00:12;42.61;36.00;50.16;;
72276;Laerm;61204;49.980;8.358;2023-06-19T01:02:41;45.57;37.11;57.26;;
72276;Laerm;61204;49.980;8.358;2023-06-19T01:05:07;44.50;35.00;58.13;;
72276;Laerm;61204;49.980;8.358;2023-06-19T01:07:50;40.07;34.03;47.84;;
72276;Laerm;61204;49.980;8.358;2023-06-19T01:10:29;39.34;35.66;46.66;;
72276;Laerm;61204;49.980;8.358;2023-06-19T01:13:10;38.57;34.33;43.63;;
72276;Laerm;61204;49.980;8.358;2023-06-19T01:15:41;38.31;33.13;43.31;;
72276;Laerm;61204;49.980;8.358;2023-06-19T01:18:08;37.62;32.85;43.15;;
72276;Laerm;61204;49.980;8.358;2023-06-19T01:20:37;44.93;35.00;58.79;;
72276;Laerm;61204;49.980;8.358;2023-06-19T01:23:10;38.15;32.72;51.75;;
72276;Laerm;61204;49.980;8.358;2023-06-19T01:25:37;35.86;31.59;42.93;;
72276;Laerm;61204;49.980;8.358;2023-06-19T01:28:04;36.74;32.08;41.56;;
72276;Laerm;61204;49.980;8.358;2023-06-19T01:30:32;38.65;34.30;44.75;;
72276;Laerm;61204;49.980;8.358;2023-06-19T01:33:04;38.37;34.42;47.84;;
72276;Laerm;61204;49.980;8.358;2023-06-19T01:35:35;39.54;34.64;46.46;;
72276;Laerm;61204;49.980;8.358;2023-06-19T01:38:02;38.86;34.60;43.73;;
72276;Laerm;61204;49.980;8.358;2023-06-19T01:40:32;38.88;33.33;43.57;;
72276;Laerm;61204;49.980;8.358;2023-06-19T01:42:59;41.53;35.78;47.29;;
72276;Laerm;61204;49.980;8.358;2023-06-19T01:45:30;38.08;33.50;47.54;;
72276;Laerm;61204;49.980;8.358;2023-06-19T01:47:57;40.10;33.61;48.24;;
72276;Laerm;61204;49.980;8.358;2023-06-19T01:50:23;48.94;40.96;62.11;;
72276;Laerm;61204;49.980;8.358;2023-06-19T01:52:55;48.88;42.68;60.70;;
72276;Laerm;61204;49.980;8.358;2023-06-19T01:55:21;47.52;40.32;59.76;;
72276;Laerm;61204;49.980;8.358;2023-06-19T01:57:49;47.53;38.52;55.23;;
72276;Laerm;61204;49.980;8.358;2023-06-19T02:00:19;48.06;39.79;55.30;;
72276;Laerm;61204;49.980;8.358;2023-06-19T02:02:45;45.71;37.83;54.50;;
72276;Laerm;61204;49.980;8.358;2023-06-19T02:05:11;45.60;40.56;55.39;;
72276;Laerm;61204;49.980;8.358;2023-06-19T02:07:36;45.60;40.68;50.88;;
72276;Laerm;61204;49.980;8.358;2023-06-19T02:10:02;44.95;40.45;49.93;;
72276;Laerm;61204;49.980;8.358;2023-06-19T02:12:27;45.95;40.82;54.48;;
72276;Laerm;61204;49.980;8.358;2023-06-19T02:14:53;45.75;39.91;53.09;;
72276;Laerm;61204;49.980;8.358;2023-06-19T02:17:21;51.31;40.21;74.47;;
72276;Laerm;61204;49.980;8.358;2023-06-19T02:19:49;65.43;42.81;81.34;;
72276;Laerm;61204;49.980;8.358;2023-06-19T02:22:14;66.03;41.23;82.61;;
72276;Laerm;61204;49.980;8.358;2023-06-19T02:24:39;67.17;41.93;82.45;;
72276;Laerm;61204;49.980;8.358;2023-06-19T02:27:06;63.13;40.42;81.68;;
72276;Laerm;61204;49.980;8.358;2023-06-19T02:29:34;54.63;40.45;72.28;;
72276;Laerm;61204;49.980;8.358;2023-06-19T02:32:01;52.09;40.25;72.52;;
72276;Laerm;61204;49.980;8.358;2023-06-19T02:34:26;49.57;40.73;64.22;;
72276;Laerm;61204;49.980;8.358;2023-06-19T02:36:54;52.12;40.58;70.37;;
72276;Laerm;61204;49.980;8.358;2023-06-19T02:39:21;48.68;39.69;61.93;;
72276;Laerm;61204;49.980;8.358;2023-06-19T02:41:48;54.17;41.26;70.95;;
72276;Laerm;61204;49.980;8.358;2023-06-19T02:44:18;48.48;40.87;58.42;;
72276;Laerm;61204;49.980;8.358;2023-06-19T02:46:46;51.20;42.04;68.48;;
72276;Laerm;61204;49.980;8.358;2023-06-19T02:49:11;50.69;41.40;67.76;;
72276;Laerm;61204;49.980;8.358;2023-06-19T02:51:37;52.07;41.45;71.75;;
72276;Laerm;61204;49.980;8.358;2023-06-19T02:54:02;50.91;43.81;65.99;;
72276;Laerm;61204;49.980;8.358;2023-06-19T02:56:28;49.23;41.58;63.56;;
72276;Laerm;61204;49.980;8.358;2023-06-19T02:58:54;50.93;42.95;67.27;;
72276;Laerm;61204;49.980;8.358;2023-06-19T03:01:19;50.96;42.56;65.50;;
72276;Laerm;61204;49.980;8.358;2023-06-19T03:03:45;51.32;43.51;63.09;;
72276;Laerm;61204;49.980;8.358;2023-06-19T03:06:11;51.08;42.04;67.18;;
72276;Laerm;61204;49.980;8.358;2023-06-19T03:08:39;52.00;44.17;64.64;;
72276;Laerm;61204;49.980;8.358;2023-06-19T03:11:05;50.54;44.12;57.81;;
72276;Laerm;61204;49.980;8.358;2023-06-19T03:13:53;50.11;45.03;61.40;;
72276;Laerm;61204;49.980;8.358;2023-06-19T03:16:21;57.37;44.98;72.01;;
72276;Laerm;61204;49.980;8.358;2023-06-19T03:18:49;53.89;46.46;71.44;;
72276;Laerm;61204;49.980;8.358;2023-06-19T03:21:17;50.76;46.78;59.35;;
72276;Laerm;61204;49.980;8.358;2023-06-19T03:23:47;51.87;46.68;63.73;;
72276;Laerm;61204;49.980;8.358;2023-06-19T03:26:15;51.22;46.16;59.86;;
72276;Laerm;61204;49.980;8.358;2023-06-19T03:28:45;50.99;45.39;59.16;;
72276;Laerm;61204;49.980;8.358;2023-06-19T03:31:12;51.75;46.11;66.18;;
72276;Laerm;61204;49.980;8.358;2023-06-19T03:33:41;52.61;47.40;61.35;;
72276;Laerm;61204;49.980;8.358;2023-06-19T03:36:06;52.53;47.51;59.92;;
72276;Laerm;61204;49.980;8.358;2023-06-19T03:38:32;52.07;47.27;59.26;;
72276;Laerm;61204;49.980;8.358;2023-06-19T03:41:00;52.41;48.45;60.87;;
72276;Laerm;61204;49.980;8.358;2023-06-19T03:43:26;54.02;49.76;62.43;;
72276;Laerm;61204;49.980;8.358;2023-06-19T03:45:51;54.91;49.75;68.35;;
72276;Laerm;61204;49.980;8.358;2023-06-19T03:48:17;54.49;49.81;61.76;;
72276;Laerm;61204;49.980;8.358;2023-06-19T03:50:43;56.75;52.12;69.78;;
72276;Laerm;61204;49.980;8.358;2023-06-19T03:53:09;54.93;49.91;62.32;;
72276;Laerm;61204;49.980;8.358;2023-06-19T03:55:34;54.62;49.52;61.26;;
72276;Laerm;61204;49.980;8.358;2023-06-19T03:58:00;54.59;49.20;66.43;;
72276;Laerm;61204;49.980;8.358;2023-06-19T04:00:25;54.23;48.62;65.97;;
72276;Laerm;61204;49.980;8.358;2023-06-19T04:02:53;53.28;49.26;58.82;;
72276;Laerm;61204;49.980;8.358;2023-06-19T04:05:19;52.66;48.65;59.82;;
72276;Laerm;61204;49.980;8.358;2023-06-19T04:07:47;52.45;49.05;56.42;;
72276;Laerm;61204;49.980;8.358;2023-06-19T04:10:13;52.75;49.03;58.88;;
72276;Laerm;61204;49.980;8.358;2023-06-19T04:12:39;51.85;47.79;58.34;;
72276;Laerm;61204;49.980;8.358;2023-06-19T04:15:07;54.21;49.96;65.85;;
72276;Laerm;61204;49.980;8.358;2023-06-19T04:17:32;54.35;49.91;60.09;;
72276;Laerm;61204;49.980;8.358;2023-06-19T04:20:00;54.46;49.61;60.32;;
72276;Laerm;61204;49.980;8.358;2023-06-19T04:22:26;54.47;49.14;61.48;;
72276;Laerm;61204;49.980;8.358;2023-06-19T04:24:53;54.89;49.03;61.80;;
72276;Laerm;61204;49.980;8.358;2023-06-19T04:27:19;55.26;50.61;64.01;;
72276;Laerm;61204;49.980;8.358;2023-06-19T04:29:44;55.77;50.98;66.52;;
72276;Laerm;61204;49.980;8.358;2023-06-19T04:32:10;54.32;50.20;60.78;;
72276;Laerm;61204;49.980;8.358;2023-06-19T04:34:39;54.80;49.51;62.81;;
72276;Laerm;61204;49.980;8.358;2023-06-19T04:37:05;54.35;50.21;62.03;;
72276;Laerm;61204;49.980;8.358;2023-06-19T04:39:30;53.62;49.39;59.99;;
72276;Laerm;61204;49.980;8.358;2023-06-19T04:41:56;52.96;48.17;66.25;;
72276;Laerm;61204;49.980;8.358;2023-06-19T04:44:21;52.64;48.65;62.17;;
72276;Laerm;61204;49.980;8.358;2023-06-19T04:46:47;53.79;48.08;63.18;;
72276;Laerm;61204;49.980;8.358;2023-06-19T04:49:13;54.44;49.52;64.23;;
72276;Laerm;61204;49.980;8.358;2023-06-19T04:51:40;52.96;48.44;66.36;;
72276;Laerm;61204;49.980;8.358;2023-06-19T04:54:06;54.16;48.62;63.74;;
72276;Laerm;61204;49.980;8.358;2023-06-19T04:56:31;53.97;49.06;64.48;;
72276;Laerm;61204;49.980;8.358;2023-06-19T04:58:59;54.21;47.48;74.74;;
72276;Laerm;61204;49.980;8.358;2023-06-19T05:01:27;52.42;46.91;61.52;;
72276;Laerm;61204;49.980;8.358;2023-06-19T05:03:56;54.08;46.56;64.79;;
72276;Laerm;61204;49.980;8.358;2023-06-19T05:06:25;54.20;45.88;63.69;;
72276;Laerm;61204;49.980;8.358;2023-06-19T05:08:51;53.93;47.66;67.70;;
72276;Laerm;61204;49.980;8.358;2023-06-19T05:11:17;54.38;49.11;62.91;;
72276;Laerm;61204;49.980;8.358;2023-06-19T05:13:43;53.71;47.89;61.82;;
72276;Laerm;61204;49.980;8.358;2023-06-19T05:16:13;54.07;49.31;65.03;;
72276;Laerm;61204;49.980;8.358;2023-06-19T05:18:42;54.38;49.71;62.98;;
72276;Laerm;61204;49.980;8.358;2023-06-19T05:21:09;54.67;50.01;72.87;;
72276;Laerm;61204;49.980;8.358;2023-06-19T05:23:37;56.52;50.23;66.79;;
72276;Laerm;61204;49.980;8.358;2023-06-19T05:26:04;55.88;48.44;69.56;;
72276;Laerm;61204;49.980;8.358;2023-06-19T05:28:30;54.38;48.13;66.24;;
72276;Laerm;61204;49.980;8.358;2023-06-19T05:30:58;54.13;48.21;66.17;;
72276;Laerm;61204;49.980;8.358;2023-06-19T05:33:24;53.96;49.95;61.46;;
72276;Laerm;61204;49.980;8.358;2023-06-19T05:35:49;54.07;49.48;66.53;;
72276;Laerm;61204;49.980;8.358;2023-06-19T05:38:18;60.49;50.56;78.18;;
72276;Laerm;61204;49.980;8.358;2023-06-19T05:40:44;56.88;49.31;74.00;;
72276;Laerm;61204;49.980;8.358;2023-06-19T05:43:09;55.88;49.07;71.13;;
72276;Laerm;61204;49.980;8.358;2023-06-19T05:45:37;56.38;49.52;78.70;;
72276;Laerm;61204;49.980;8.358;2023-06-19T05:48:04;54.92;48.87;64.46;;
72276;Laerm;61204;49.980;8.358;2023-06-19T05:50:29;54.46;48.96;65.14;;
72276;Laerm;61204;49.980;8.358;2023-06-19T05:52:56;56.35;50.33;66.71;;
72276;Laerm;61204;49.980;8.358;2023-06-19T05:55:21;55.09;49.11;67.89;;
72276;Laerm;61204;49.980;8.358;2023-06-19T05:57:47;55.19;48.96;73.10;;
72276;Laerm;61204;49.980;8.358;2023-06-19T06:00:13;57.01;51.02;66.03;;
72276;Laerm;61204;49.980;8.358;2023-06-19T06:02:40;55.64;49.48;64.95;;
72276;Laerm;61204;49.980;8.358;2023-06-19T06:05:07;58.26;50.03;69.48;;
72276;Laerm;61204;49.980;8.358;2023-06-19T06:07:35;63.08;52.43;79.05;;
72276;Laerm;61204;49.980;8.358;2023-06-19T06:10:01;59.40;52.73;67.64;;
72276;Laerm;61204;49.980;8.358;2023-06-19T06:12:29;58.98;51.32;69.17;;
72276;Laerm;61204;49.980;8.358;2023-06-19T06:14:54;59.12;50.65;69.42;;
72276;Laerm;61204;49.980;8.358;2023-06-19T06:17:20;57.75;50.09;64.97;;
72276;Laerm;61204;49.980;8.358;2023-06-19T06:19:45;56.10;49.98;64.19;;
72276;Laerm;61204;49.980;8.358;2023-06-19T06:22:13;55.72;51.05;74.92;;
72276;Laerm;61204;49.980;8.358;2023-06-19T06:24:41;56.38;51.36;77.20;;
72276;Laerm;61204;49.980;8.358;2023-06-19T06:27:06;55.73;50.42;65.52;;
72276;Laerm;61204;49.980;8.358;2023-06-19T06:29:32;58.68;50.75;69.49;;
72276;Laerm;61204;49.980;8.358;2023-06-19T06:32:07;57.46;52.43;70.93;;
72276;Laerm;61204;49.980;8.358;2023-06-19T06:34:34;57.82;52.08;71.25;;
72276;Laerm;61204;49.980;8.358;2023-06-19T06:37:02;55.57;50.79;63.59;;
72276;Laerm;61204;49.980;8.358;2023-06-19T06:39:28;56.32;51.12;66.89;;
72276;Laerm;61204;49.980;8.358;2023-06-19T06:41:53;57.60;51.86;72.33;;
72276;Laerm;61204;49.980;8.358;2023-06-19T06:44:19;56.92;50.43;70.72;;
72276;Laerm;61204;49.980;8.358;2023-06-19T06:46:44;57.80;49.71;75.24;;
72276;Laerm;61204;49.980;8.358;2023-06-19T06:49:11;54.24;49.82;70.57;;
72276;Laerm;61204;49.980;8.358;2023-06-19T06:51:37;53.66;47.58;61.41;;
72276;Laerm;61204;49.980;8.358;2023-06-19T06:54:02;53.60;48.43;61.99;;
72276;Laerm;61204;49.980;8.358;2023-06-19T06:56:28;55.39;48.83;70.10;;
72276;Laerm;61204;49.980;8.358;2023-06-19T06:58:53;52.39;47.34;61.06;;
72276;Laerm;61204;49.980;8.358;2023-06-19T07:01:19;54.66;49.29;61.90;;
72276;Laerm;61204;49.980;8.358;2023-06-19T07:03:44;53.28;46.94;65.57;;
72276;Laerm;61204;49.980;8.358;2023-06-19T07:06:13;52.81;48.07;62.94;;
72276;Laerm;61204;49.980;8.358;2023-06-19T07:08:38;55.73;51.28;65.31;;
72276;Laerm;61204;49.980;8.358;2023-06-19T07:11:08;54.78;49.40;64.10;;
72276;Laerm;61204;49.980;8.358;2023-06-19T07:13:34;56.93;49.91;72.14;;
72276;Laerm;61204;49.980;8.358;2023-06-19T07:15:59;60.24;49.19;81.30;;
72276;Laerm;61204;49.980;8.358;2023-06-19T07:18:27;62.63;49.06;80.14;;
72276;Laerm;61204;49.980;8.358;2023-06-19T07:20:52;62.76;49.78;80.55;;
72276;Laerm;61204;49.980;8.358;2023-06-19T07:23:20;53.63;49.49;68.16;;
72276;Laerm;61204;49.980;8.358;2023-06-19T07:25:46;56.43;48.30;76.11;;
72276;Laerm;61204;49.980;8.358;2023-06-19T07:28:12;55.48;48.04;76.60;;
72276;Laerm;61204;49.980;8.358;2023-06-19T07:30:39;52.88;48.64;60.39;;
72276;Laerm;61204;49.980;8.358;2023-06-19T07:33:05;52.03;45.90;65.42;;
72276;Laerm;61204;49.980;8.358;2023-06-19T07:35:30;53.76;48.71;64.19;;
72276;Laerm;61204;49.980;8.358;2023-06-19T07:37:56;53.22;48.11;65.61;;
72276;Laerm;61204;49.980;8.358;2023-06-19T07:40:21;53.73;48.06;63.92;;
72276;Laerm;61204;49.980;8.358;2023-06-19T07:42:47;53.86;47.99;69.97;;
72276;Laerm;61204;49.980;8.358;2023-06-19T07:45:13;55.15;48.91;70.05;;
72276;Laerm;61204;49.980;8.358;2023-06-19T07:47:38;54.25;47.85;64.53;;
72276;Laerm;61204;49.980;8.358;2023-06-19T07:50:07;53.49;47.78;73.64;;
72276;Laerm;61204;49.980;8.358;2023-06-19T07:52:32;52.66;47.21;63.05;;
72276;Laerm;61204;49.980;8.358;2023-06-19T07:55:00;52.15;46.22;71.94;;
72276;Laerm;61204;49.980;8.358;2023-06-19T07:57:28;52.36;47.85;60.62;;
72276;Laerm;61204;49.980;8.358;2023-06-19T07:59:54;53.13;47.37;64.48;;
72276;Laerm;61204;49.980;8.358;2023-06-19T08:02:20;52.94;47.79;63.11;;
72276;Laerm;61204;49.980;8.358;2023-06-19T08:04:46;52.75;46.56;66.23;;
72276;Laerm;61204;49.980;8.358;2023-06-19T08:07:12;53.48;48.13;62.14;;
72276;Laerm;61204;49.980;8.358;2023-06-19T08:09:37;53.70;47.94;64.72;;
72276;Laerm;61204;49.980;8.358;2023-06-19T08:12:04;52.13;46.93;61.42;;
72276;Laerm;61204;49.980;8.358;2023-06-19T08:14:29;52.41;47.19;61.79;;
72276;Laerm;61204;49.980;8.358;2023-06-19T08:16:55;52.33;47.34;62.39;;
72276;Laerm;61204;49.980;8.358;2023-06-19T08:19:20;54.05;46.71;65.12;;
72276;Laerm;61204;49.980;8.358;2023-06-19T08:21:46;52.17;46.16;59.24;;
72276;Laerm;61204;49.980;8.358;2023-06-19T08:24:11;53.85;47.12;62.66;;
72276;Laerm;61204;49.980;8.358;2023-06-19T08:26:37;54.34;47.69;66.98;;
72276;Laerm;61204;49.980;8.358;2023-06-19T08:29:04;53.49;48.25;69.74;;
72276;Laerm;61204;49.980;8.358;2023-06-19T08:31:30;51.81;46.43;66.22;;
72276;Laerm;61204;49.980;8.358;2023-06-19T08:33:56;56.44;48.88;66.04;;
72276;Laerm;61204;49.980;8.358;2023-06-19T08:36:22;55.13;47.92;66.95;;
72276;Laerm;61204;49.980;8.358;2023-06-19T08:38:47;55.04;49.60;64.12;;
72276;Laerm;61204;49.980;8.358;2023-06-19T08:41:21;55.26;49.33;64.89;;
72276;Laerm;61204;49.980;8.358;2023-06-19T08:43:46;58.62;49.01;79.34;;
72276;Laerm;61204;49.980;8.358;2023-06-19T08:46:16;57.95;49.71;78.09;;
72276;Laerm;61204;49.980;8.358;2023-06-19T08:48:45;54.28;48.86;64.17;;
72276;Laerm;61204;49.980;8.358;2023-06-19T08:51:12;55.16;50.01;64.72;;
72276;Laerm;61204;49.980;8.358;2023-06-19T08:53:48;56.80;50.99;64.64;;
72276;Laerm;61204;49.980;8.358;2023-06-19T08:56:15;56.47;50.37;66.71;;
72276;Laerm;61204;49.980;8.358;2023-06-19T08:58:41;54.98;50.51;62.95;;
72276;Laerm;61204;49.980;8.358;2023-06-19T09:01:06;54.18;47.10;64.54;;
72276;Laerm;61204;49.980;8.358;2023-06-19T09:03:32;54.35;48.26;65.06;;
72276;Laerm;61204;49.980;8.358;2023-06-19T09:06:03;55.43;49.11;64.96;;
72276;Laerm;61204;49.980;8.358;2023-06-19T09:08:29;56.05;49.83;68.12;;
72276;Laerm;61204;49.980;8.358;2023-06-19T09:11:00;55.85;51.04;64.92;;
72276;Laerm;61204;49.980;8.358;2023-06-19T09:13:30;55.37;48.43;70.08;;
72276;Laerm;61204;49.980;8.358;2023-06-19T09:16:07;53.29;47.94;61.66;;
72276;Laerm;61204;49.980;8.358;2023-06-19T09:18:47;53.46;48.21;66.88;;
72276;Laerm;61204;49.980;8.358;2023-06-19T09:21:21;53.60;48.09;65.89;;
72276;Laerm;61204;49.980;8.358;2023-06-19T09:23:50;54.23;48.65;66.11;;
72276;Laerm;61204;49.980;8.358;2023-06-19T09:26:19;53.13;47.14;65.35;;
72276;Laerm;61204;49.980;8.358;2023-06-19T09:28:50;53.21;47.46;61.99;;
72276;Laerm;61204;49.980;8.358;2023-06-19T09:31:18;54.16;48.79;70.27;;
72276;Laerm;61204;49.980;8.358;2023-06-19T09:33:44;54.59;49.45;61.87;;
72276;Laerm;61204;49.980;8.358;2023-06-19T09:36:11;53.22;49.37;59.39;;
72276;Laerm;61204;49.980;8.358;2023-06-19T09:38:38;54.16;48.38;65.85;;
72276;Laerm;61204;49.980;8.358;2023-06-19T09:41:06;53.31;48.22;67.29;;
72276;Laerm;61204;49.980;8.358;2023-06-19T09:43:41;55.20;50.17;71.33;;
72276;Laerm;61204;49.980;8.358;2023-06-19T09:46:08;53.30;48.15;67.32;;
72276;Laerm;61204;49.980;8.358;2023-06-19T09:48:41;54.27;49.68;63.56;;
72276;Laerm;61204;49.980;8.358;2023-06-19T09:51:17;56.40;47.93;72.50;;
72276;Laerm;61204;49.980;8.358;2023-06-19T09:53:48;54.24;48.26;61.65;;
72276;Laerm;61204;49.980;8.358;2023-06-19T09:56:16;53.21;47.90;60.28;;
72276;Laerm;61204;49.980;8.358;2023-06-19T09:58:43;55.35;50.15;67.90;;
72276;Laerm;61204;49.980;8.358;2023-06-19T10:01:10;54.64;47.70;65.59;;
72276;Laerm;61204;49.980;8.358;2023-06-19T10:03:36;53.33;48.12;62.08;;
72276;Laerm;61204;49.980;8.358;2023-06-19T10:06:04;56.71;50.28;71.17;;
72276;Laerm;61204;49.980;8.358;2023-06-19T10:08:41;54.83;49.33;65.71;;
72276;Laerm;61204;49.980;8.358;2023-06-19T10:11:08;55.30;50.16;60.99;;
72276;Laerm;61204;49.980;8.358;2023-06-19T10:13:41;55.68;48.98;66.04;;
72276;Laerm;61204;49.980;8.358;2023-06-19T10:16:26;55.27;50.22;64.68;;
72276;Laerm;61204;49.980;8.358;2023-06-19T10:18:53;55.38;49.34;62.24;;
72276;Laerm;61204;49.980;8.358;2023-06-19T10:21:21;55.72;50.69;62.43;;
72276;Laerm;61204;49.980;8.358;2023-06-19T10:24:06;55.74;49.71;66.38;;
72276;Laerm;61204;49.980;8.358;2023-06-19T10:26:35;56.24;49.76;68.70;;
72276;Laerm;61204;49.980;8.358;2023-06-19T10:29:02;55.58;49.64;66.11;;
72276;Laerm;61204;49.980;8.358;2023-06-19T10:31:38;55.56;50.48;65.04;;
72276;Laerm;61204;49.980;8.358;2023-06-19T10:34:04;53.71;49.22;61.13;;
72276;Laerm;61204;49.980;8.358;2023-06-19T10:36:29;53.12;48.17;60.67;;
72276;Laerm;61204;49.980;8.358;2023-06-19T10:38:55;53.17;46.98;62.13;;
72276;Laerm;61204;49.980;8.358;2023-06-19T10:41:25;54.25;48.42;64.18;;
72276;Laerm;61204;49.980;8.358;2023-06-19T10:44:04;53.60;48.39;63.84;;
72276;Laerm;61204;49.980;8.358;2023-06-19T10:46:35;54.36;49.85;66.53;;
72276;Laerm;61204;49.980;8.358;2023-06-19T10:49:06;55.87;48.28;68.93;;
72276;Laerm;61204;49.980;8.358;2023-06-19T10:51:41;55.92;50.94;64.96;;
72276;Laerm;61204;49.980;8.358;2023-06-19T10:54:10;56.22;50.78;66.39;;
72276;Laerm;61204;49.980;8.358;2023-06-19T10:56:36;55.54;49.58;68.39;;
72276;Laerm;61204;49.980;8.358;2023-06-19T10:59:09;54.49;47.22;67.32;;
72276;Laerm;61204;49.980;8.358;2023-06-19T11:01:39;53.25;45.82;64.86;;
72276;Laerm;61204;49.980;8.358;2023-06-19T11:04:10;56.28;50.09;66.55;;
72276;Laerm;61204;49.980;8.358;2023-06-19T11:06:37;55.02;48.88;62.68;;
72276;Laerm;61204;49.980;8.358;2023-06-19T11:09:07;54.59;49.86;66.09;;
72276;Laerm;61204;49.980;8.358;2023-06-19T11:11:47;53.41;48.04;59.51;;
72276;Laerm;61204;49.980;8.358;2023-06-19T11:14:18;52.76;47.83;67.35;;
72276;Laerm;61204;49.980;8.358;2023-06-19T11:16:47;55.32;49.92;64.72;;
72276;Laerm;61204;49.980;8.358;2023-06-19T11:19:22;53.75;47.75;62.58;;
72276;Laerm;61204;49.980;8.358;2023-06-19T11:21:51;52.91;47.54;64.83;;
72276;Laerm;61204;49.980;8.358;2023-06-19T11:24:19;53.82;49.65;60.88;;
72276;Laerm;61204;49.980;8.358;2023-06-19T11:26:48;53.28;48.82;63.67;;
72276;Laerm;61204;49.980;8.358;2023-06-19T11:29:25;54.15;48.60;66.76;;
72276;Laerm;61204;49.980;8.358;2023-06-19T11:31:53;54.46;48.29;64.22;;
72276;Laerm;61204;49.980;8.358;2023-06-19T11:34:19;54.09;48.60;62.96;;
72276;Laerm;61204;49.980;8.358;2023-06-19T11:36:48;52.79;47.35;63.16;;
72276;Laerm;61204;49.980;8.358;2023-06-19T11:39:17;54.45;47.72;64.83;;
72276;Laerm;61204;49.980;8.358;2023-06-19T11:41:45;52.22;48.00;61.62;;
72276;Laerm;61204;49.980;8.358;2023-06-19T11:44:10;54.26;47.85;64.73;;
72276;Laerm;61204;49.980;8.358;2023-06-19T11:46:37;51.25;45.33;60.16;;
72276;Laerm;61204;49.980;8.358;2023-06-19T11:51:37;54.19;48.26;63.54;;
72276;Laerm;61204;49.980;8.358;2023-06-19T11:54:10;52.95;48.23;62.47;;
72276;Laerm;61204;49.980;8.358;2023-06-19T11:56:39;50.12;45.00;63.54;;
72276;Laerm;61204;49.980;8.358;2023-06-19T11:59:06;51.75;44.80;63.11;;
72276;Laerm;61204;49.980;8.358;2023-06-19T12:01:34;53.05;47.16;67.03;;
72276;Laerm;61204;49.980;8.358;2023-06-19T12:04:01;53.42;46.09;68.98;;
72276;Laerm;61204;49.980;8.358;2023-06-19T12:06:28;52.47;45.98;64.69;;
72276;Laerm;61204;49.980;8.358;2023-06-19T12:08:53;54.97;48.91;66.60;;
72276;Laerm;61204;49.980;8.358;2023-06-19T12:11:19;56.01;49.89;67.74;;
72276;Laerm;61204;49.980;8.358;2023-06-19T12:13:45;53.99;47.36;59.68;;
72276;Laerm;61204;49.980;8.358;2023-06-19T12:16:11;51.37;45.15;62.27;;
72276;Laerm;61204;49.980;8.358;2023-06-19T12:18:37;49.52;45.12;56.77;;
72276;Laerm;61204;49.980;8.358;2023-06-19T12:21:03;53.86;47.12;69.89;;
72276;Laerm;61204;49.980;8.358;2023-06-19T12:23:31;53.23;44.83;68.09;;
72276;Laerm;61204;49.980;8.358;2023-06-19T12:25:56;53.75;47.05;69.79;;
72276;Laerm;61204;49.980;8.358;2023-06-19T12:28:22;52.01;47.16;61.92;;
72276;Laerm;61204;49.980;8.358;2023-06-19T12:30:48;49.86;45.62;56.93;;
72276;Laerm;61204;49.980;8.358;2023-06-19T12:33:20;51.75;47.73;58.56;;
72276;Laerm;61204;49.980;8.358;2023-06-19T12:35:48;53.26;48.06;57.98;;
72276;Laerm;61204;49.980;8.358;2023-06-19T12:38:13;52.80;47.36;58.98;;
72276;Laerm;61204;49.980;8.358;2023-06-19T12:40:39;51.98;46.21;57.86;;
72276;Laerm;61204;49.980;8.358;2023-06-19T12:43:05;52.84;48.85;64.13;;
72276;Laerm;61204;49.980;8.358;2023-06-19T12:45:31;54.50;47.15;67.70;;
72276;Laerm;61204;49.980;8.358;2023-06-19T12:47:56;52.58;47.52;63.50;;
72276;Laerm;61204;49.980;8.358;2023-06-19T12:50:22;52.85;46.66;67.03;;
72276;Laerm;61204;49.980;8.358;2023-06-19T12:52:48;56.90;48.59;71.89;;
72276;Laerm;61204;49.980;8.358;2023-06-19T12:55:14;58.96;48.13;74.33;;
72276;Laerm;61204;49.980;8.358;2023-06-19T12:57:42;58.15;48.25;73.24;;
72276;Laerm;61204;49.980;8.358;2023-06-19T13:00:11;60.54;47.87;75.29;;
72276;Laerm;61204;49.980;8.358;2023-06-19T13:02:38;56.82;47.18;71.79;;
72276;Laerm;61204;49.980;8.358;2023-06-19T13:05:06;56.78;49.56;71.01;;
72276;Laerm;61204;49.980;8.358;2023-06-19T13:07:31;54.32;49.63;64.60;;
72276;Laerm;61204;49.980;8.358;2023-06-19T13:09:58;53.23;49.39;61.35;;
72276;Laerm;61204;49.980;8.358;2023-06-19T13:12:23;53.93;49.38;59.96;;
72276;Laerm;61204;49.980;8.358;2023-06-19T13:14:49;54.66;49.20;63.21;;
72276;Laerm;61204;49.980;8.358;2023-06-19T13:17:14;53.47;48.31;74.43;;
72276;Laerm;61204;49.980;8.358;2023-06-19T13:19:40;54.30;48.68;64.17;;
72276;Laerm;61204;49.980;8.358;2023-06-19T13:22:06;54.89;49.59;61.47;;
72276;Laerm;61204;49.980;8.358;2023-06-19T13:24:31;50.80;46.93;59.23;;
72276;Laerm;61204;49.980;8.358;2023-06-19T13:26:59;52.88;48.03;63.79;;
72276;Laerm;61204;49.980;8.358;2023-06-19T13:29:25;54.62;49.34;61.90;;
72276;Laerm;61204;49.980;8.358;2023-06-19T13:31:55;53.66;47.97;60.67;;
72276;Laerm;61204;49.980;8.358;2023-06-19T13:34:20;52.03;46.63;59.05;;
72276;Laerm;61204;49.980;8.358;2023-06-19T13:36:47;52.34;47.54;59.50;;
72276;Laerm;61204;49.980;8.358;2023-06-19T13:39:13;52.34;47.19;60.71;;
72276;Laerm;61204;49.980;8.358;2023-06-19T13:41:39;52.91;47.03;59.60;;
72276;Laerm;61204;49.980;8.358;2023-06-19T13:44:04;54.39;47.62;64.55;;
72276;Laerm;61204;49.980;8.358;2023-06-19T13:46:32;57.48;49.97;71.56;;
72276;Laerm;61204;49.980;8.358;2023-06-19T13:48:58;55.73;49.36;65.42;;